sensor_id;sensor_type;location;lat;lon;timestamp;P1;durP1;ratioP1;P2;durP2;ratioP2
3865;SDS011;1948;53.250;10.412;2023-04-24T00:02:00;5.00;;;4.80;;
3865;SDS011;1948;53.250;10.412;2023-04-24T00:04:27;4.23;;;4.10;;
3865;SDS011;1948;53.250;10.412;2023-04-24T00:06:58;4.90;;;4.60;;
3865;SDS011;1948;53.250;10.412;2023-04-24T00:09:26;5.93;;;4.87;;
3865;SDS011;1948;53.250;10.412;2023-04-24T00:11:53;5.93;;;5.47;;
3865;SDS011;1948;53.250;10.412;2023-04-24T00:14:23;5.60;;;5.17;;
3865;SDS011;1948;53.250;10.412;2023-04-24T00:16:52;5.33;;;4.93;;
3865;SDS011;1948;53.250;10.412;2023-04-24T00:19:22;4.80;;;4.63;;
3865;SDS011;1948;53.250;10.412;2023-04-24T00:21:49;7.63;;;5.00;;
3865;SDS011;1948;53.250;10.412;2023-04-24T00:24:16;5.17;;;4.57;;
3865;SDS011;1948;53.250;10.412;2023-04-24T00:26:44;5.60;;;5.07;;
3865;SDS011;1948;53.250;10.412;2023-04-24T00:29:13;4.70;;;4.50;;
3865;SDS011;1948;53.250;10.412;2023-04-24T00:31:40;8.50;;;4.60;;
3865;SDS011;1948;53.250;10.412;2023-04-24T00:34:07;4.60;;;4.23;;
3865;SDS011;1948;53.250;10.412;2023-04-24T00:36:34;4.97;;;4.87;;
3865;SDS011;1948;53.250;10.412;2023-04-24T00:39:04;5.00;;;4.70;;
3865;SDS011;1948;53.250;10.412;2023-04-24T00:41:31;4.70;;;4.60;;
3865;SDS011;1948;53.250;10.412;2023-04-24T00:43:58;4.83;;;4.43;;
3865;SDS011;1948;53.250;10.412;2023-04-24T00:46:25;4.70;;;4.60;;
3865;SDS011;1948;53.250;10.412;2023-04-24T00:48:52;4.70;;;4.43;;
3865;SDS011;1948;53.250;10.412;2023-04-24T00:51:24;4.07;;;3.97;;
3865;SDS011;1948;53.250;10.412;2023-04-24T00:53:51;4.70;;;4.50;;
3865;SDS011;1948;53.250;10.412;2023-04-24T00:56:18;4.33;;;4.23;;
3865;SDS011;1948;53.250;10.412;2023-04-24T00:58:46;5.67;;;4.73;;
3865;SDS011;1948;53.250;10.412;2023-04-24T01:01:13;4.60;;;4.40;;
3865;SDS011;1948;53.250;10.412;2023-04-24T01:03:44;4.40;;;4.30;;
3865;SDS011;1948;53.250;10.412;2023-04-24T01:06:14;4.57;;;4.20;;
3865;SDS011;1948;53.250;10.412;2023-04-24T01:08:42;4.80;;;4.37;;
3865;SDS011;1948;53.250;10.412;2023-04-24T01:11:11;4.63;;;4.53;;
3865;SDS011;1948;53.250;10.412;2023-04-24T01:13:38;5.10;;;4.67;;
3865;SDS011;1948;53.250;10.412;2023-04-24T01:16:06;7.17;;;4.77;;
3865;SDS011;1948;53.250;10.412;2023-04-24T01:18:36;4.50;;;4.30;;
3865;SDS011;1948;53.250;10.412;2023-04-24T01:21:04;4.50;;;4.30;;
3865;SDS011;1948;53.250;10.412;2023-04-24T01:23:33;4.67;;;4.40;;
3865;SDS011;1948;53.250;10.412;2023-04-24T01:26:02;3.97;;;3.87;;
3865;SDS011;1948;53.250;10.412;2023-04-24T01:28:33;4.07;;;3.77;;
3865;SDS011;1948;53.250;10.412;2023-04-24T01:31:00;3.70;;;3.60;;
3865;SDS011;1948;53.250;10.412;2023-04-24T01:33:29;3.90;;;3.80;;
3865;SDS011;1948;53.250;10.412;2023-04-24T01:35:56;3.77;;;3.67;;
3865;SDS011;1948;53.250;10.412;2023-04-24T01:38:26;4.50;;;4.10;;
3865;SDS011;1948;53.250;10.412;2023-04-24T01:40:53;3.97;;;3.77;;
3865;SDS011;1948;53.250;10.412;2023-04-24T01:43:20;4.80;;;4.50;;
3865;SDS011;1948;53.250;10.412;2023-04-24T01:45:50;3.90;;;3.70;;
3865;SDS011;1948;53.250;10.412;2023-04-24T01:48:22;3.97;;;3.77;;
3865;SDS011;1948;53.250;10.412;2023-04-24T01:50:49;3.50;;;3.30;;
3865;SDS011;1948;53.250;10.412;2023-04-24T01:53:16;3.70;;;3.60;;
3865;SDS011;1948;53.250;10.412;2023-04-24T01:55:45;3.37;;;3.13;;
3865;SDS011;1948;53.250;10.412;2023-04-24T01:58:13;3.17;;;3.17;;
3865;SDS011;1948;53.250;10.412;2023-04-24T02:00:40;2.77;;;2.67;;
3865;SDS011;1948;53.250;10.412;2023-04-24T02:03:07;4.77;;;2.80;;
3865;SDS011;1948;53.250;10.412;2023-04-24T02:05:34;3.80;;;2.60;;
3865;SDS011;1948;53.250;10.412;2023-04-24T02:08:05;2.43;;;2.43;;
3865;SDS011;1948;53.250;10.412;2023-04-24T02:10:32;3.13;;;2.30;;
3865;SDS011;1948;53.250;10.412;2023-04-24T02:12:59;2.33;;;2.20;;
3865;SDS011;1948;53.250;10.412;2023-04-24T02:15:26;1.90;;;1.90;;
3865;SDS011;1948;53.250;10.412;2023-04-24T02:17:56;3.07;;;2.70;;
3865;SDS011;1948;53.250;10.412;2023-04-24T02:20:23;5.10;;;2.10;;
3865;SDS011;1948;53.250;10.412;2023-04-24T02:22:52;3.67;;;2.23;;
3865;SDS011;1948;53.250;10.412;2023-04-24T02:25:21;2.20;;;2.10;;
3865;SDS011;1948;53.250;10.412;2023-04-24T02:27:49;1.97;;;1.90;;
3865;SDS011;1948;53.250;10.412;2023-04-24T02:30:16;2.10;;;2.00;;
3865;SDS011;1948;53.250;10.412;2023-04-24T02:32:45;2.10;;;2.10;;
3865;SDS011;1948;53.250;10.412;2023-04-24T02:35:12;2.03;;;2.03;;
3865;SDS011;1948;53.250;10.412;2023-04-24T02:37:39;1.70;;;1.60;;
3865;SDS011;1948;53.250;10.412;2023-04-24T02:40:09;2.13;;;2.03;;
3865;SDS011;1948;53.250;10.412;2023-04-24T02:42:35;1.60;;;1.60;;
3865;SDS011;1948;53.250;10.412;2023-04-24T02:45:05;1.60;;;1.60;;
3865;SDS011;1948;53.250;10.412;2023-04-24T02:47:32;2.10;;;2.00;;
3865;SDS011;1948;53.250;10.412;2023-04-24T02:50:02;1.60;;;1.50;;
3865;SDS011;1948;53.250;10.412;2023-04-24T02:52:29;2.13;;;2.03;;
3865;SDS011;1948;53.250;10.412;2023-04-24T02:54:58;1.30;;;1.30;;
3865;SDS011;1948;53.250;10.412;2023-04-24T02:57:25;1.57;;;1.57;;
3865;SDS011;1948;53.250;10.412;2023-04-24T02:59:52;1.67;;;1.67;;
3865;SDS011;1948;53.250;10.412;2023-04-24T03:02:22;2.07;;;1.97;;
3865;SDS011;1948;53.250;10.412;2023-04-24T03:04:49;1.60;;;1.50;;
3865;SDS011;1948;53.250;10.412;2023-04-24T03:07:16;1.30;;;1.30;;
3865;SDS011;1948;53.250;10.412;2023-04-24T03:09:43;1.50;;;1.47;;
3865;SDS011;1948;53.250;10.412;2023-04-24T03:12:12;1.70;;;1.60;;
3865;SDS011;1948;53.250;10.412;2023-04-24T03:14:43;3.27;;;1.70;;
3865;SDS011;1948;53.250;10.412;2023-04-24T03:17:10;1.80;;;1.70;;
3865;SDS011;1948;53.250;10.412;2023-04-24T03:19:37;1.40;;;1.40;;
3865;SDS011;1948;53.250;10.412;2023-04-24T03:22:05;1.60;;;1.60;;
3865;SDS011;1948;53.250;10.412;2023-04-24T03:24:31;1.33;;;1.33;;
3865;SDS011;1948;53.250;10.412;2023-04-24T03:27:05;1.80;;;1.80;;
3865;SDS011;1948;53.250;10.412;2023-04-24T03:29:32;4.00;;;1.40;;
3865;SDS011;1948;53.250;10.412;2023-04-24T03:31:59;1.33;;;1.20;;
3865;SDS011;1948;53.250;10.412;2023-04-24T03:34:27;1.67;;;1.50;;
3865;SDS011;1948;53.250;10.412;2023-04-24T03:36:54;4.13;;;1.70;;
3865;SDS011;1948;53.250;10.412;2023-04-24T03:39:25;1.47;;;1.27;;
3865;SDS011;1948;53.250;10.412;2023-04-24T03:41:57;1.47;;;1.47;;
3865;SDS011;1948;53.250;10.412;2023-04-24T03:44:24;1.50;;;1.50;;
3865;SDS011;1948;53.250;10.412;2023-04-24T03:46:53;1.10;;;1.10;;
3865;SDS011;1948;53.250;10.412;2023-04-24T03:49:22;1.30;;;1.30;;
3865;SDS011;1948;53.250;10.412;2023-04-24T03:51:49;1.30;;;1.30;;
3865;SDS011;1948;53.250;10.412;2023-04-24T03:54:16;1.40;;;1.40;;
3865;SDS011;1948;53.250;10.412;2023-04-24T03:56:46;1.77;;;1.37;;
3865;SDS011;1948;53.250;10.412;2023-04-24T03:59:13;0.97;;;0.97;;
3865;SDS011;1948;53.250;10.412;2023-04-24T04:01:40;1.20;;;1.20;;
3865;SDS011;1948;53.250;10.412;2023-04-24T04:04:10;1.10;;;1.10;;
3865;SDS011;1948;53.250;10.412;2023-04-24T04:06:37;1.03;;;1.03;;
3865;SDS011;1948;53.250;10.412;2023-04-24T04:09:06;1.30;;;1.30;;
3865;SDS011;1948;53.250;10.412;2023-04-24T04:11:36;1.10;;;1.10;;
3865;SDS011;1948;53.250;10.412;2023-04-24T04:14:03;1.60;;;1.50;;
3865;SDS011;1948;53.250;10.412;2023-04-24T04:16:33;1.30;;;1.30;;
3865;SDS011;1948;53.250;10.412;2023-04-24T04:18:59;1.47;;;1.37;;
3865;SDS011;1948;53.250;10.412;2023-04-24T04:21:29;2.63;;;1.10;;
3865;SDS011;1948;53.250;10.412;2023-04-24T04:23:57;14.13;;;1.40;;
3865;SDS011;1948;53.250;10.412;2023-04-24T04:26:24;0.90;;;0.90;;
3865;SDS011;1948;53.250;10.412;2023-04-24T04:28:52;1.10;;;1.10;;
3865;SDS011;1948;53.250;10.412;2023-04-24T04:31:19;1.30;;;1.30;;
3865;SDS011;1948;53.250;10.412;2023-04-24T04:33:49;1.50;;;0.97;;
3865;SDS011;1948;53.250;10.412;2023-04-24T04:36:19;2.97;;;0.93;;
3865;SDS011;1948;53.250;10.412;2023-04-24T04:38:45;1.13;;;1.13;;
3865;SDS011;1948;53.250;10.412;2023-04-24T04:41:12;1.20;;;1.20;;
3865;SDS011;1948;53.250;10.412;2023-04-24T04:43:39;1.30;;;1.30;;
3865;SDS011;1948;53.250;10.412;2023-04-24T04:46:08;1.10;;;1.10;;
3865;SDS011;1948;53.250;10.412;2023-04-24T04:48:36;1.90;;;1.17;;
3865;SDS011;1948;53.250;10.412;2023-04-24T04:51:06;1.10;;;1.10;;
3865;SDS011;1948;53.250;10.412;2023-04-24T04:53:35;1.00;;;1.00;;
3865;SDS011;1948;53.250;10.412;2023-04-24T04:56:02;1.90;;;1.00;;
3865;SDS011;1948;53.250;10.412;2023-04-24T04:58:29;0.90;;;0.90;;
3865;SDS011;1948;53.250;10.412;2023-04-24T05:00:56;1.07;;;0.90;;
3865;SDS011;1948;53.250;10.412;2023-04-24T05:03:23;2.50;;;1.10;;
3865;SDS011;1948;53.250;10.412;2023-04-24T05:05:53;2.20;;;1.33;;
3865;SDS011;1948;53.250;10.412;2023-04-24T05:08:20;1.60;;;1.40;;
3865;SDS011;1948;53.250;10.412;2023-04-24T05:10:53;1.63;;;1.53;;
3865;SDS011;1948;53.250;10.412;2023-04-24T05:13:21;3.43;;;1.20;;
3865;SDS011;1948;53.250;10.412;2023-04-24T05:16:04;1.33;;;1.23;;
3865;SDS011;1948;53.250;10.412;2023-04-24T05:18:30;4.30;;;1.30;;
3865;SDS011;1948;53.250;10.412;2023-04-24T05:20:57;2.00;;;0.90;;
3865;SDS011;1948;53.250;10.412;2023-04-24T05:23:24;1.10;;;1.10;;
3865;SDS011;1948;53.250;10.412;2023-04-24T05:25:51;0.90;;;0.90;;
3865;SDS011;1948;53.250;10.412;2023-04-24T05:28:18;2.17;;;1.20;;
3865;SDS011;1948;53.250;10.412;2023-04-24T05:30:46;1.33;;;1.23;;
3865;SDS011;1948;53.250;10.412;2023-04-24T05:33:13;1.00;;;1.00;;
3865;SDS011;1948;53.250;10.412;2023-04-24T05:35:40;1.43;;;1.33;;
3865;SDS011;1948;53.250;10.412;2023-04-24T05:38:12;4.90;;;1.50;;
3865;SDS011;1948;53.250;10.412;2023-04-24T05:40:39;1.57;;;1.30;;
3865;SDS011;1948;53.250;10.412;2023-04-24T05:43:06;1.30;;;1.30;;
3865;SDS011;1948;53.250;10.412;2023-04-24T05:45:36;1.70;;;1.60;;
3865;SDS011;1948;53.250;10.412;2023-04-24T05:48:05;1.50;;;1.50;;
3865;SDS011;1948;53.250;10.412;2023-04-24T05:50:36;1.60;;;1.50;;
3865;SDS011;1948;53.250;10.412;2023-04-24T05:53:03;1.60;;;1.60;;
3865;SDS011;1948;53.250;10.412;2023-04-24T05:55:30;1.60;;;1.60;;
3865;SDS011;1948;53.250;10.412;2023-04-24T05:57:58;1.50;;;1.50;;
3865;SDS011;1948;53.250;10.412;2023-04-24T06:00:27;3.03;;;1.40;;
3865;SDS011;1948;53.250;10.412;2023-04-24T06:02:57;1.30;;;1.30;;
3865;SDS011;1948;53.250;10.412;2023-04-24T06:05:27;1.43;;;1.43;;
3865;SDS011;1948;53.250;10.412;2023-04-24T06:07:57;1.30;;;1.30;;
3865;SDS011;1948;53.250;10.412;2023-04-24T06:10:23;1.40;;;1.30;;
3865;SDS011;1948;53.250;10.412;2023-04-24T06:12:50;1.40;;;1.40;;
3865;SDS011;1948;53.250;10.412;2023-04-24T06:15:17;6.23;;;1.27;;
3865;SDS011;1948;53.250;10.412;2023-04-24T06:17:44;1.73;;;1.00;;
3865;SDS011;1948;53.250;10.412;2023-04-24T06:20:11;2.70;;;1.20;;
3865;SDS011;1948;53.250;10.412;2023-04-24T06:22:38;1.20;;;1.20;;
3865;SDS011;1948;53.250;10.412;2023-04-24T06:25:06;1.80;;;0.97;;
3865;SDS011;1948;53.250;10.412;2023-04-24T06:27:33;1.40;;;1.40;;
3865;SDS011;1948;53.250;10.412;2023-04-24T06:30:01;1.10;;;1.10;;
3865;SDS011;1948;53.250;10.412;2023-04-24T06:32:28;1.23;;;1.23;;
3865;SDS011;1948;53.250;10.412;2023-04-24T06:34:57;1.23;;;1.10;;
3865;SDS011;1948;53.250;10.412;2023-04-24T06:37:24;1.90;;;1.40;;
3865;SDS011;1948;53.250;10.412;2023-04-24T06:39:53;1.33;;;1.17;;
3865;SDS011;1948;53.250;10.412;2023-04-24T06:42:20;1.17;;;1.17;;
3865;SDS011;1948;53.250;10.412;2023-04-24T06:44:52;2.73;;;1.20;;
3865;SDS011;1948;53.250;10.412;2023-04-24T06:47:19;1.37;;;1.30;;
3865;SDS011;1948;53.250;10.412;2023-04-24T06:49:49;2.33;;;1.10;;
3865;SDS011;1948;53.250;10.412;2023-04-24T06:52:18;1.03;;;1.03;;
3865;SDS011;1948;53.250;10.412;2023-04-24T06:54:45;1.20;;;1.10;;
3865;SDS011;1948;53.250;10.412;2023-04-24T06:57:13;1.20;;;1.20;;
3865;SDS011;1948;53.250;10.412;2023-04-24T06:59:42;1.00;;;1.00;;
3865;SDS011;1948;53.250;10.412;2023-04-24T07:02:12;1.00;;;1.00;;
3865;SDS011;1948;53.250;10.412;2023-04-24T07:04:39;1.23;;;1.23;;
3865;SDS011;1948;53.250;10.412;2023-04-24T07:07:09;2.63;;;0.93;;
3865;SDS011;1948;53.250;10.412;2023-04-24T07:09:40;1.20;;;1.20;;
3865;SDS011;1948;53.250;10.412;2023-04-24T07:12:09;0.93;;;0.93;;
3865;SDS011;1948;53.250;10.412;2023-04-24T07:14:39;4.00;;;1.37;;
3865;SDS011;1948;53.250;10.412;2023-04-24T07:17:09;1.43;;;1.30;;
3865;SDS011;1948;53.250;10.412;2023-04-24T07:19:36;7.80;;;1.50;;
3865;SDS011;1948;53.250;10.412;2023-04-24T07:22:03;2.53;;;1.30;;
3865;SDS011;1948;53.250;10.412;2023-04-24T07:24:30;3.30;;;1.23;;
3865;SDS011;1948;53.250;10.412;2023-04-24T07:27:01;1.40;;;1.40;;
3865;SDS011;1948;53.250;10.412;2023-04-24T07:29:28;16.97;;;1.40;;
3865;SDS011;1948;53.250;10.412;2023-04-24T07:31:54;3.00;;;1.40;;
3865;SDS011;1948;53.250;10.412;2023-04-24T07:34:22;1.00;;;1.00;;
3865;SDS011;1948;53.250;10.412;2023-04-24T07:36:52;1.20;;;1.20;;
3865;SDS011;1948;53.250;10.412;2023-04-24T07:39:22;0.90;;;0.90;;
3865;SDS011;1948;53.250;10.412;2023-04-24T07:41:50;1.20;;;1.20;;
3865;SDS011;1948;53.250;10.412;2023-04-24T07:44:16;2.53;;;0.80;;
3865;SDS011;1948;53.250;10.412;2023-04-24T07:46:43;1.20;;;1.20;;
3865;SDS011;1948;53.250;10.412;2023-04-24T07:49:11;1.37;;;1.30;;
3865;SDS011;1948;53.250;10.412;2023-04-24T07:51:40;1.30;;;1.30;;
3865;SDS011;1948;53.250;10.412;2023-04-24T07:54:10;1.73;;;1.63;;
3865;SDS011;1948;53.250;10.412;2023-04-24T07:56:40;6.90;;;1.20;;
3865;SDS011;1948;53.250;10.412;2023-04-24T07:59:09;4.37;;;1.20;;
3865;SDS011;1948;53.250;10.412;2023-04-24T08:01:37;1.23;;;1.10;;
3865;SDS011;1948;53.250;10.412;2023-04-24T08:04:04;1.43;;;1.33;;
3865;SDS011;1948;53.250;10.412;2023-04-24T08:06:34;1.70;;;1.20;;
3865;SDS011;1948;53.250;10.412;2023-04-24T08:09:01;1.83;;;1.07;;
3865;SDS011;1948;53.250;10.412;2023-04-24T08:11:28;1.47;;;1.30;;
3865;SDS011;1948;53.250;10.412;2023-04-24T08:13:55;1.40;;;1.40;;
3865;SDS011;1948;53.250;10.412;2023-04-24T08:16:24;1.13;;;1.10;;
3865;SDS011;1948;53.250;10.412;2023-04-24T08:18:52;1.33;;;1.33;;
3865;SDS011;1948;53.250;10.412;2023-04-24T08:21:19;1.47;;;1.37;;
3865;SDS011;1948;53.250;10.412;2023-04-24T08:23:55;1.63;;;1.63;;
3865;SDS011;1948;53.250;10.412;2023-04-24T08:26:22;2.23;;;2.13;;
3865;SDS011;1948;53.250;10.412;2023-04-24T08:28:49;2.43;;;1.57;;
3865;SDS011;1948;53.250;10.412;2023-04-24T08:31:21;1.77;;;1.77;;
3865;SDS011;1948;53.250;10.412;2023-04-24T08:33:51;2.70;;;1.70;;
3865;SDS011;1948;53.250;10.412;2023-04-24T08:36:21;2.00;;;2.00;;
3865;SDS011;1948;53.250;10.412;2023-04-24T08:39:08;1.80;;;1.80;;
3865;SDS011;1948;53.250;10.412;2023-04-24T08:41:41;10.27;;;2.50;;
3865;SDS011;1948;53.250;10.412;2023-04-24T08:44:09;15.87;;;1.93;;
3865;SDS011;1948;53.250;10.412;2023-04-24T08:46:42;2.20;;;2.17;;
3865;SDS011;1948;53.250;10.412;2023-04-24T08:49:14;2.23;;;2.23;;
3865;SDS011;1948;53.250;10.412;2023-04-24T08:51:45;2.10;;;2.00;;
3865;SDS011;1948;53.250;10.412;2023-04-24T08:54:13;2.43;;;2.33;;
3865;SDS011;1948;53.250;10.412;2023-04-24T08:56:41;2.20;;;2.20;;
3865;SDS011;1948;53.250;10.412;2023-04-24T08:59:13;2.20;;;2.20;;
3865;SDS011;1948;53.250;10.412;2023-04-24T09:01:41;2.10;;;2.10;;
3865;SDS011;1948;53.250;10.412;2023-04-24T09:04:14;2.30;;;2.20;;
3865;SDS011;1948;53.250;10.412;2023-04-24T09:06:44;3.07;;;2.87;;
3865;SDS011;1948;53.250;10.412;2023-04-24T09:09:14;2.60;;;2.50;;
3865;SDS011;1948;53.250;10.412;2023-04-24T09:11:45;34.17;;;3.57;;
3865;SDS011;1948;53.250;10.412;2023-04-24T09:14:13;4.07;;;3.77;;
3865;SDS011;1948;53.250;10.412;2023-04-24T09:16:40;4.80;;;4.50;;
3865;SDS011;1948;53.250;10.412;2023-04-24T09:19:08;8.13;;;5.60;;
3865;SDS011;1948;53.250;10.412;2023-04-24T09:21:35;5.77;;;5.47;;
3865;SDS011;1948;53.250;10.412;2023-04-24T09:24:08;5.63;;;5.43;;
3865;SDS011;1948;53.250;10.412;2023-04-24T09:26:49;5.90;;;5.67;;
3865;SDS011;1948;53.250;10.412;2023-04-24T09:29:27;7.00;;;5.40;;
3865;SDS011;1948;53.250;10.412;2023-04-24T09:31:54;6.60;;;6.20;;
3865;SDS011;1948;53.250;10.412;2023-04-24T09:34:22;6.80;;;6.30;;
3865;SDS011;1948;53.250;10.412;2023-04-24T09:36:52;5.30;;;5.10;;
3865;SDS011;1948;53.250;10.412;2023-04-24T09:39:19;6.47;;;5.57;;
3865;SDS011;1948;53.250;10.412;2023-04-24T09:41:52;8.47;;;4.90;;
3865;SDS011;1948;53.250;10.412;2023-04-24T09:44:27;4.80;;;4.70;;
3865;SDS011;1948;53.250;10.412;2023-04-24T09:46:55;5.40;;;4.90;;
3865;SDS011;1948;53.250;10.412;2023-04-24T09:49:29;5.33;;;5.13;;
3865;SDS011;1948;53.250;10.412;2023-04-24T09:52:07;5.40;;;4.97;;
3865;SDS011;1948;53.250;10.412;2023-04-24T09:54:36;6.93;;;5.20;;
3865;SDS011;1948;53.250;10.412;2023-04-24T09:57:14;5.67;;;5.27;;
3865;SDS011;1948;53.250;10.412;2023-04-24T09:59:42;7.30;;;5.17;;
3865;SDS011;1948;53.250;10.412;2023-04-24T10:02:17;6.23;;;5.83;;
3865;SDS011;1948;53.250;10.412;2023-04-24T10:04:56;6.93;;;6.30;;
3865;SDS011;1948;53.250;10.412;2023-04-24T10:07:26;9.33;;;6.40;;
3865;SDS011;1948;53.250;10.412;2023-04-24T10:09:57;6.17;;;5.87;;
3865;SDS011;1948;53.250;10.412;2023-04-24T10:12:32;6.63;;;5.90;;
3865;SDS011;1948;53.250;10.412;2023-04-24T10:15:00;7.40;;;6.40;;
3865;SDS011;1948;53.250;10.412;2023-04-24T10:17:31;7.57;;;6.97;;
3865;SDS011;1948;53.250;10.412;2023-04-24T10:20:04;7.70;;;7.00;;
3865;SDS011;1948;53.250;10.412;2023-04-24T10:22:32;12.40;;;6.70;;
3865;SDS011;1948;53.250;10.412;2023-04-24T10:25:02;9.40;;;6.03;;
3865;SDS011;1948;53.250;10.412;2023-04-24T10:27:31;9.83;;;6.57;;
3865;SDS011;1948;53.250;10.412;2023-04-24T10:30:00;6.60;;;6.20;;
3865;SDS011;1948;53.250;10.412;2023-04-24T10:32:28;7.83;;;7.10;;
3865;SDS011;1948;53.250;10.412;2023-04-24T10:34:56;7.10;;;6.50;;
3865;SDS011;1948;53.250;10.412;2023-04-24T10:37:28;8.10;;;7.30;;
3865;SDS011;1948;53.250;10.412;2023-04-24T10:40:04;6.83;;;6.23;;
3865;SDS011;1948;53.250;10.412;2023-04-24T10:42:36;9.93;;;6.40;;
3865;SDS011;1948;53.250;10.412;2023-04-24T10:45:16;7.93;;;7.23;;
3865;SDS011;1948;53.250;10.412;2023-04-24T10:48:18;11.23;;;7.37;;
3865;SDS011;1948;53.250;10.412;2023-04-24T10:50:44;8.00;;;6.60;;
3865;SDS011;1948;53.250;10.412;2023-04-24T10:53:17;7.30;;;6.60;;
3865;SDS011;1948;53.250;10.412;2023-04-24T10:58:14;6.60;;;6.20;;
3865;SDS011;1948;53.250;10.412;2023-04-24T11:00:43;7.37;;;6.67;;
3865;SDS011;1948;53.250;10.412;2023-04-24T11:05:52;7.43;;;6.70;;
3865;SDS011;1948;53.250;10.412;2023-04-24T11:08:42;7.50;;;7.00;;
3865;SDS011;1948;53.250;10.412;2023-04-24T11:11:17;7.33;;;6.70;;
3865;SDS011;1948;53.250;10.412;2023-04-24T11:21:43;5.57;;;5.27;;
3865;SDS011;1948;53.250;10.412;2023-04-24T11:24:27;5.70;;;5.37;;
3865;SDS011;1948;53.250;10.412;2023-04-24T11:29:39;4.73;;;4.33;;
3865;SDS011;1948;53.250;10.412;2023-04-24T11:37:43;5.80;;;4.13;;
3865;SDS011;1948;53.250;10.412;2023-04-24T11:40:22;5.50;;;3.97;;
3865;SDS011;1948;53.250;10.412;2023-04-24T11:42:50;4.90;;;3.70;;
3865;SDS011;1948;53.250;10.412;2023-04-24T11:45:21;3.70;;;3.50;;
3865;SDS011;1948;53.250;10.412;2023-04-24T11:47:51;6.03;;;3.37;;
3865;SDS011;1948;53.250;10.412;2023-04-24T11:50:19;4.07;;;3.63;;
3865;SDS011;1948;53.250;10.412;2023-04-24T11:52:49;4.83;;;3.10;;
3865;SDS011;1948;53.250;10.412;2023-04-24T11:57:46;4.23;;;3.93;;
3865;SDS011;1948;53.250;10.412;2023-04-24T12:00:17;4.20;;;3.90;;
3865;SDS011;1948;53.250;10.412;2023-04-24T12:05:36;4.30;;;3.87;;
3865;SDS011;1948;53.250;10.412;2023-04-24T12:08:05;4.77;;;4.43;;
3865;SDS011;1948;53.250;10.412;2023-04-24T12:10:35;4.13;;;3.93;;
3865;SDS011;1948;53.250;10.412;2023-04-24T12:13:04;4.10;;;4.00;;
3865;SDS011;1948;53.250;10.412;2023-04-24T12:15:31;4.53;;;4.33;;
3865;SDS011;1948;53.250;10.412;2023-04-24T12:18:01;4.40;;;4.17;;
3865;SDS011;1948;53.250;10.412;2023-04-24T12:20:28;3.90;;;3.70;;
3865;SDS011;1948;53.250;10.412;2023-04-24T12:23:00;5.50;;;4.20;;
3865;SDS011;1948;53.250;10.412;2023-04-24T12:25:30;3.93;;;3.63;;
3865;SDS011;1948;53.250;10.412;2023-04-24T12:30:38;4.53;;;4.40;;
3865;SDS011;1948;53.250;10.412;2023-04-24T12:33:20;4.40;;;4.20;;
3865;SDS011;1948;53.250;10.412;2023-04-24T12:35:48;4.93;;;4.30;;
3865;SDS011;1948;53.250;10.412;2023-04-24T12:38:25;5.03;;;4.83;;
3865;SDS011;1948;53.250;10.412;2023-04-24T12:41:07;4.63;;;4.07;;
3865;SDS011;1948;53.250;10.412;2023-04-24T12:43:36;4.63;;;4.20;;
3865;SDS011;1948;53.250;10.412;2023-04-24T12:46:08;4.33;;;4.07;;
3865;SDS011;1948;53.250;10.412;2023-04-24T12:48:35;4.10;;;4.00;;
3865;SDS011;1948;53.250;10.412;2023-04-24T12:51:02;3.93;;;3.83;;
3865;SDS011;1948;53.250;10.412;2023-04-24T12:53:34;3.37;;;3.27;;
3865;SDS011;1948;53.250;10.412;2023-04-24T12:56:11;3.27;;;3.07;;
3865;SDS011;1948;53.250;10.412;2023-04-24T12:58:38;3.83;;;3.60;;
3865;SDS011;1948;53.250;10.412;2023-04-24T13:01:08;3.93;;;3.53;;
3865;SDS011;1948;53.250;10.412;2023-04-24T13:03:37;4.43;;;3.10;;
3865;SDS011;1948;53.250;10.412;2023-04-24T13:06:04;3.83;;;3.73;;
3865;SDS011;1948;53.250;10.412;2023-04-24T13:08:31;3.00;;;2.90;;
3865;SDS011;1948;53.250;10.412;2023-04-24T13:10:58;4.30;;;2.90;;
3865;SDS011;1948;53.250;10.412;2023-04-24T13:13:28;2.97;;;2.87;;
3865;SDS011;1948;53.250;10.412;2023-04-24T13:15:59;2.40;;;2.30;;
3865;SDS011;1948;53.250;10.412;2023-04-24T13:18:31;4.60;;;2.63;;
3865;SDS011;1948;53.250;10.412;2023-04-24T13:20:58;2.37;;;2.37;;
3865;SDS011;1948;53.250;10.412;2023-04-24T13:23:28;5.40;;;2.73;;
3865;SDS011;1948;53.250;10.412;2023-04-24T13:25:55;6.67;;;2.70;;
3865;SDS011;1948;53.250;10.412;2023-04-24T13:28:25;2.97;;;2.50;;
3865;SDS011;1948;53.250;10.412;2023-04-24T13:30:52;2.50;;;2.30;;
3865;SDS011;1948;53.250;10.412;2023-04-24T13:33:24;2.60;;;2.60;;
3865;SDS011;1948;53.250;10.412;2023-04-24T13:35:55;2.30;;;2.30;;
3865;SDS011;1948;53.250;10.412;2023-04-24T13:38:24;2.97;;;2.20;;
3865;SDS011;1948;53.250;10.412;2023-04-24T13:40:54;3.07;;;2.87;;
3865;SDS011;1948;53.250;10.412;2023-04-24T13:43:24;2.00;;;1.90;;
3865;SDS011;1948;53.250;10.412;2023-04-24T13:45:50;2.27;;;2.27;;
3865;SDS011;1948;53.250;10.412;2023-04-24T13:48:18;2.33;;;2.23;;
3865;SDS011;1948;53.250;10.412;2023-04-24T13:50:44;2.30;;;2.30;;
3865;SDS011;1948;53.250;10.412;2023-04-24T13:53:14;2.17;;;2.10;;
3865;SDS011;1948;53.250;10.412;2023-04-24T13:55:41;4.33;;;2.80;;
3865;SDS011;1948;53.250;10.412;2023-04-24T13:58:10;2.80;;;2.70;;
3865;SDS011;1948;53.250;10.412;2023-04-24T14:00:37;2.50;;;2.30;;
3865;SDS011;1948;53.250;10.412;2023-04-24T14:03:04;2.13;;;2.10;;
3865;SDS011;1948;53.250;10.412;2023-04-24T14:05:32;2.43;;;2.23;;
3865;SDS011;1948;53.250;10.412;2023-04-24T14:07:59;2.70;;;2.70;;
3865;SDS011;1948;53.250;10.412;2023-04-24T14:10:26;2.33;;;2.23;;
3865;SDS011;1948;53.250;10.412;2023-04-24T14:12:55;2.47;;;2.47;;
3865;SDS011;1948;53.250;10.412;2023-04-24T14:15:24;2.80;;;2.80;;
3865;SDS011;1948;53.250;10.412;2023-04-24T14:17:53;2.27;;;2.20;;
3865;SDS011;1948;53.250;10.412;2023-04-24T14:20:23;2.20;;;2.20;;
3865;SDS011;1948;53.250;10.412;2023-04-24T14:22:50;2.10;;;2.10;;
3865;SDS011;1948;53.250;10.412;2023-04-24T14:25:20;2.23;;;2.23;;
3865;SDS011;1948;53.250;10.412;2023-04-24T14:27:48;2.30;;;2.20;;
3865;SDS011;1948;53.250;10.412;2023-04-24T14:30:18;3.43;;;2.57;;
3865;SDS011;1948;53.250;10.412;2023-04-24T14:32:45;2.70;;;2.60;;
3865;SDS011;1948;53.250;10.412;2023-04-24T14:35:15;2.37;;;2.17;;
3865;SDS011;1948;53.250;10.412;2023-04-24T14:37:45;2.60;;;2.60;;
3865;SDS011;1948;53.250;10.412;2023-04-24T14:40:12;6.07;;;2.60;;
3865;SDS011;1948;53.250;10.412;2023-04-24T14:43:01;2.27;;;2.27;;
3865;SDS011;1948;53.250;10.412;2023-04-24T14:45:28;2.07;;;2.07;;
3865;SDS011;1948;53.250;10.412;2023-04-24T14:48:00;2.23;;;2.23;;
3865;SDS011;1948;53.250;10.412;2023-04-24T14:50:26;3.50;;;2.00;;
3865;SDS011;1948;53.250;10.412;2023-04-24T14:52:54;1.87;;;1.77;;
3865;SDS011;1948;53.250;10.412;2023-04-24T14:55:25;0.80;;;0.80;;
3865;SDS011;1948;53.250;10.412;2023-04-24T14:57:52;0.80;;;0.80;;
3865;SDS011;1948;53.250;10.412;2023-04-24T15:00:19;1.00;;;1.00;;
3865;SDS011;1948;53.250;10.412;2023-04-24T15:02:50;0.80;;;0.80;;
3865;SDS011;1948;53.250;10.412;2023-04-24T15:05:17;0.70;;;0.70;;
3865;SDS011;1948;53.250;10.412;2023-04-24T15:07:48;1.00;;;1.00;;
3865;SDS011;1948;53.250;10.412;2023-04-24T15:10:15;0.90;;;0.90;;
3865;SDS011;1948;53.250;10.412;2023-04-24T15:12:43;1.23;;;1.17;;
3865;SDS011;1948;53.250;10.412;2023-04-24T15:15:13;0.80;;;0.80;;
3865;SDS011;1948;53.250;10.412;2023-04-24T15:17:40;1.10;;;1.00;;
3865;SDS011;1948;53.250;10.412;2023-04-24T15:20:11;1.10;;;1.10;;
3865;SDS011;1948;53.250;10.412;2023-04-24T15:22:38;1.07;;;1.07;;
3865;SDS011;1948;53.250;10.412;2023-04-24T15:25:06;2.10;;;0.80;;
3865;SDS011;1948;53.250;10.412;2023-04-24T15:27:43;1.40;;;1.30;;
3865;SDS011;1948;53.250;10.412;2023-04-24T15:30:11;1.10;;;1.10;;
3865;SDS011;1948;53.250;10.412;2023-04-24T15:32:40;2.00;;;1.40;;
3865;SDS011;1948;53.250;10.412;2023-04-24T15:35:07;1.73;;;1.73;;
3865;SDS011;1948;53.250;10.412;2023-04-24T15:37:38;2.20;;;1.73;;
3865;SDS011;1948;53.250;10.412;2023-04-24T15:40:05;1.90;;;1.73;;
3865;SDS011;1948;53.250;10.412;2023-04-24T15:42:36;1.70;;;1.70;;